createdAt,value
2023-12-07T00:00:18.501Z,6.60
2023-12-07T00:00:51.032Z,7.13
2023-12-07T00:01:26.122Z,6.83
2023-12-07T00:01:58.658Z,7.20
2023-12-07T00:02:31.054Z,7.27
2023-12-07T00:03:03.530Z,7.33
2023-12-07T00:03:38.511Z,6.97
2023-12-07T00:04:11.018Z,7.30
2023-12-07T00:04:43.440Z,6.93
2023-12-07T00:05:15.902Z,7.00
2023-12-07T00:05:48.335Z,6.30
2023-12-07T00:06:23.718Z,6.70
2023-12-07T00:06:56.187Z,7.23
2023-12-07T00:07:28.633Z,6.90
2023-12-07T00:08:01.092Z,7.10
2023-12-07T00:08:36.072Z,6.77
2023-12-07T00:09:08.474Z,7.40
2023-12-07T00:09:40.847Z,6.57
2023-12-07T00:10:13.323Z,7.03
2023-12-07T00:10:45.796Z,6.93
2023-12-07T00:11:23.375Z,7.33
2023-12-07T00:11:55.997Z,6.43
2023-12-07T00:12:28.682Z,6.67
2023-12-07T00:13:01.383Z,7.07
2023-12-07T00:13:36.450Z,7.57
2023-12-07T00:14:08.862Z,6.80
2023-12-07T00:14:41.235Z,6.37
2023-12-07T00:15:16.231Z,6.90
2023-12-07T00:15:49.097Z,7.20
2023-12-07T00:16:21.490Z,6.80
2023-12-07T00:16:53.925Z,7.53
2023-12-07T00:17:28.906Z,6.67
2023-12-07T00:18:01.686Z,7.87
2023-12-07T00:18:34.483Z,7.00
2023-12-07T00:19:09.582Z,7.20
2023-12-07T00:19:42.002Z,7.00
2023-12-07T00:20:14.510Z,6.77
2023-12-07T00:20:46.915Z,7.00
2023-12-07T00:21:21.868Z,7.17
2023-12-07T00:21:54.259Z,7.10
2023-12-07T00:22:27.977Z,6.40
2023-12-07T00:23:03.962Z,6.70
2023-12-07T00:23:36.324Z,6.67
2023-12-07T00:24:09.149Z,7.30
2023-12-07T00:24:44.106Z,6.83
2023-12-07T00:25:17.247Z,6.77
2023-12-07T00:25:49.854Z,6.70
2023-12-07T00:26:27.440Z,7.50
2023-12-07T00:27:00.373Z,6.10
2023-12-07T00:27:32.877Z,7.37
2023-12-07T00:28:06.685Z,7.03
2023-12-07T00:28:41.682Z,7.03
2023-12-07T00:29:14.084Z,7.37
2023-12-07T00:29:46.468Z,6.90
2023-12-07T00:30:22.152Z,7.87
2023-12-07T00:30:54.556Z,7.10
2023-12-07T00:31:27.544Z,7.17
2023-12-07T00:31:59.934Z,6.80
2023-12-07T00:32:34.957Z,7.00
2023-12-07T00:33:07.353Z,7.03
2023-12-07T00:33:39.706Z,6.43
2023-12-07T00:34:14.764Z,6.60
2023-12-07T00:34:47.406Z,7.10
2023-12-07T00:35:23.413Z,7.07
2023-12-07T00:35:58.480Z,6.90
2023-12-07T00:36:31.192Z,6.43
2023-12-07T00:37:04.456Z,7.40
2023-12-07T00:37:37.462Z,7.03
2023-12-07T00:38:12.735Z,7.40
2023-12-07T00:38:45.088Z,7.50
2023-12-07T00:39:18.420Z,6.90
2023-12-07T00:39:50.813Z,6.77
2023-12-07T00:40:23.659Z,6.60
2023-12-07T00:40:58.652Z,6.60
2023-12-07T00:41:33.704Z,6.63
2023-12-07T00:42:06.290Z,6.97
2023-12-07T00:42:39.184Z,6.93
2023-12-07T00:43:14.210Z,6.67
2023-12-07T00:43:46.817Z,7.33
2023-12-07T00:44:19.174Z,7.63
2023-12-07T00:44:51.554Z,7.30
2023-12-07T00:45:26.577Z,6.87
2023-12-07T00:45:59.315Z,6.53
2023-12-07T00:46:31.763Z,6.83
2023-12-07T00:47:04.769Z,7.00
2023-12-07T00:47:39.876Z,6.70
2023-12-07T00:48:12.369Z,6.83
2023-12-07T00:48:44.767Z,6.90
2023-12-07T00:49:17.222Z,6.80
2023-12-07T00:49:52.354Z,6.93
2023-12-07T00:50:24.781Z,6.53
2023-12-07T00:50:57.168Z,6.43
2023-12-07T00:51:29.543Z,7.07
2023-12-07T00:52:04.678Z,6.40
2023-12-07T00:52:37.111Z,6.53
2023-12-07T00:53:10.136Z,7.13
2023-12-07T00:53:42.647Z,6.20
2023-12-07T00:54:17.756Z,6.70
2023-12-07T00:54:50.169Z,7.10
2023-12-07T00:55:22.629Z,6.70
2023-12-07T00:55:57.591Z,6.90
2023-12-07T00:56:32.552Z,6.60
2023-12-07T00:57:05.176Z,6.30
2023-12-07T00:57:37.554Z,6.60
2023-12-07T00:58:12.580Z,6.37
2023-12-07T00:58:45.020Z,6.97
2023-12-07T00:59:17.794Z,6.30
2023-12-07T00:59:50.219Z,6.87
2023-12-07T01:00:25.188Z,6.43
2023-12-07T01:00:57.635Z,6.63
2023-12-07T01:01:30.055Z,7.13
2023-12-07T01:02:02.622Z,6.23
2023-12-07T01:02:37.678Z,6.33
2023-12-07T01:03:10.080Z,6.07
2023-12-07T01:03:42.456Z,6.40
2023-12-07T01:04:17.508Z,6.63
2023-12-07T01:04:50.009Z,6.70
2023-12-07T01:05:22.512Z,7.00
2023-12-07T01:05:57.605Z,7.07
2023-12-07T01:06:30.153Z,6.40
2023-12-07T01:07:02.883Z,6.70
2023-12-07T01:07:38.102Z,6.03
2023-12-07T01:08:10.514Z,6.40
2023-12-07T01:08:43.020Z,6.33
2023-12-07T01:09:16.157Z,6.30
2023-12-07T01:09:51.223Z,6.80
2023-12-07T01:10:23.647Z,5.90
2023-12-07T01:10:55.998Z,6.30
2023-12-07T01:11:28.445Z,5.87
2023-12-07T01:12:06.203Z,6.67
2023-12-07T01:12:38.635Z,6.70
2023-12-07T01:13:11.047Z,6.50
2023-12-07T01:13:43.427Z,5.90
2023-12-07T01:14:18.465Z,6.10
2023-12-07T01:14:50.855Z,6.20
2023-12-07T01:15:23.232Z,6.03
2023-12-07T01:15:58.252Z,5.97
2023-12-07T01:16:30.990Z,6.03
2023-12-07T01:17:03.648Z,6.67
2023-12-07T01:17:36.068Z,6.67
2023-12-07T01:18:11.120Z,6.53
2023-12-07T01:18:43.553Z,6.30
2023-12-07T01:19:16.137Z,6.33
2023-12-07T01:19:48.571Z,7.00
2023-12-07T01:20:23.569Z,5.90
2023-12-07T01:20:56.081Z,6.73
2023-12-07T01:21:28.531Z,6.47
2023-12-07T01:22:00.969Z,6.30
2023-12-07T01:22:36.007Z,6.00
2023-12-07T01:23:10.978Z,6.07
2023-12-07T01:23:44.472Z,6.37
2023-12-07T01:24:17.162Z,6.10
2023-12-07T01:24:52.274Z,6.70
2023-12-07T01:25:25.702Z,6.23
2023-12-07T01:26:01.630Z,5.90
2023-12-07T01:26:34.030Z,6.23
2023-12-07T01:27:11.725Z,6.27
2023-12-07T01:27:44.136Z,6.10
2023-12-07T01:28:16.636Z,6.63
2023-12-07T01:28:49.043Z,6.10
2023-12-07T01:29:24.492Z,6.27
2023-12-07T01:29:57.031Z,6.40
2023-12-07T01:30:29.449Z,6.37
2023-12-07T01:31:02.154Z,6.30
2023-12-07T01:31:37.208Z,6.60
2023-12-07T01:32:10.064Z,6.50
2023-12-07T01:32:42.409Z,6.30
2023-12-07T01:33:14.789Z,6.10
2023-12-07T01:33:47.297Z,6.70
2023-12-07T01:34:22.411Z,6.70
2023-12-07T01:34:54.878Z,7.17
2023-12-07T01:35:27.255Z,7.20
2023-12-07T01:36:02.231Z,6.73
2023-12-07T01:36:34.660Z,6.63
2023-12-07T01:37:07.107Z,6.60
2023-12-07T01:37:39.623Z,6.50
2023-12-07T01:38:14.651Z,6.13
2023-12-07T01:38:47.041Z,6.50
2023-12-07T01:39:19.972Z,7.20
2023-12-07T01:39:52.365Z,6.70
2023-12-07T01:40:27.381Z,7.17
2023-12-07T01:40:59.814Z,6.30
2023-12-07T01:41:32.380Z,7.10
2023-12-07T01:42:05.121Z,6.50
2023-12-07T01:42:42.774Z,6.33
2023-12-07T01:43:15.269Z,6.80
2023-12-07T01:43:48.190Z,6.47
2023-12-07T01:44:21.249Z,7.00
2023-12-07T01:44:56.252Z,6.47
2023-12-07T01:45:28.839Z,6.53
2023-12-07T01:46:01.431Z,7.40
2023-12-07T01:46:34.776Z,6.77
2023-12-07T01:47:11.674Z,7.13
2023-12-07T01:47:44.332Z,6.60
2023-12-07T01:48:16.896Z,6.73
2023-12-07T01:48:50.738Z,6.80
2023-12-07T01:49:26.184Z,6.27
2023-12-07T01:49:58.754Z,6.30
2023-12-07T01:50:31.164Z,6.37
2023-12-07T01:51:05.561Z,6.43
2023-12-07T01:51:40.683Z,6.37
2023-12-07T01:52:13.261Z,6.63
2023-12-07T01:52:48.431Z,6.73
2023-12-07T01:53:22.155Z,6.33
2023-12-07T01:53:57.223Z,6.40
2023-12-07T01:54:29.603Z,6.03
2023-12-07T01:55:02.181Z,5.90
2023-12-07T01:55:34.843Z,6.57
2023-12-07T01:56:11.725Z,6.30
2023-12-07T01:56:44.241Z,6.07
2023-12-07T01:57:16.671Z,6.23
2023-12-07T01:57:51.744Z,6.20
2023-12-07T01:58:26.785Z,6.63
2023-12-07T01:58:59.325Z,6.10
2023-12-07T01:59:31.752Z,6.77
2023-12-07T02:00:05.175Z,6.30
2023-12-07T02:00:40.356Z,6.10
2023-12-07T02:01:13.837Z,6.10
2023-12-07T02:01:46.600Z,6.70
2023-12-07T02:02:19.522Z,6.33
2023-12-07T02:02:54.983Z,6.50
2023-12-07T02:03:28.740Z,6.60
2023-12-07T02:04:01.247Z,7.10
2023-12-07T02:04:34.224Z,6.47
2023-12-07T02:05:10.363Z,6.83
2023-12-07T02:05:44.732Z,6.30
2023-12-07T02:06:17.298Z,6.63
2023-12-07T02:06:49.891Z,6.47
2023-12-07T02:07:25.779Z,6.30
2023-12-07T02:07:58.249Z,6.43
2023-12-07T02:08:30.702Z,6.30
2023-12-07T02:09:03.658Z,6.67
2023-12-07T02:09:38.708Z,6.47
2023-12-07T02:10:12.012Z,6.67
2023-12-07T02:10:44.583Z,6.47
2023-12-07T02:11:17.034Z,6.67
2023-12-07T02:11:52.045Z,6.50
2023-12-07T02:12:24.628Z,6.23
2023-12-07T02:12:59.814Z,6.40
2023-12-07T02:13:32.201Z,7.03
2023-12-07T02:14:07.194Z,6.60
2023-12-07T02:14:39.609Z,6.97
2023-12-07T02:15:12.955Z,7.10
2023-12-07T02:15:45.457Z,6.87
2023-12-07T02:16:25.844Z,6.70
2023-12-07T02:17:02.976Z,6.87
2023-12-07T02:17:38.507Z,6.90
2023-12-07T02:18:19.019Z,6.57
2023-12-07T02:18:54.107Z,7.10
2023-12-07T02:19:51.713Z,7.00
2023-12-07T02:20:32.274Z,6.33
2023-12-07T02:21:12.534Z,6.80
2023-12-07T02:21:49.549Z,7.13
2023-12-07T02:22:27.931Z,5.93
2023-12-07T02:23:05.685Z,6.93
2023-12-07T02:23:46.664Z,6.60
2023-12-07T02:24:23.505Z,7.13
2023-12-07T02:25:06.297Z,6.83
2023-12-07T02:26:04.201Z,6.90
2023-12-07T02:27:17.897Z,6.60
2023-12-07T02:27:50.271Z,6.87
2023-12-07T02:28:22.698Z,6.90
2023-12-07T02:28:55.130Z,7.43
2023-12-07T02:29:30.066Z,6.37
2023-12-07T02:30:02.430Z,6.50
2023-12-07T02:30:34.817Z,6.13
2023-12-07T02:31:07.272Z,6.77
2023-12-07T02:31:42.315Z,7.20
2023-12-07T02:32:15.028Z,6.63
2023-12-07T02:32:47.691Z,6.90
2023-12-07T02:33:20.294Z,6.50
2023-12-07T02:33:55.509Z,6.73
2023-12-07T02:34:28.070Z,7.17
2023-12-07T02:35:01.233Z,6.33
2023-12-07T02:35:35.156Z,6.57
2023-12-07T02:36:10.924Z,6.40
2023-12-07T02:36:45.078Z,6.60
2023-12-07T02:37:17.982Z,6.60
2023-12-07T02:37:51.723Z,6.27
2023-12-07T02:38:27.333Z,6.83
2023-12-07T02:39:02.650Z,6.40
2023-12-07T02:39:35.134Z,6.30
2023-12-07T02:40:12.149Z,6.50
2023-12-07T02:40:48.950Z,6.10
2023-12-07T02:41:21.951Z,6.60
2023-12-07T02:41:55.308Z,6.80
2023-12-07T02:42:30.449Z,6.37
2023-12-07T02:43:05.952Z,6.90
2023-12-07T02:43:39.145Z,6.63
2023-12-07T02:44:11.810Z,6.47
2023-12-07T02:44:44.148Z,7.23
2023-12-07T02:45:19.575Z,6.40
2023-12-07T02:45:52.038Z,6.67
2023-12-07T02:46:24.429Z,6.63
2023-12-07T02:46:56.807Z,6.67
2023-12-07T02:47:33.056Z,6.50
2023-12-07T02:48:06.224Z,7.03
2023-12-07T02:48:38.635Z,7.30
2023-12-07T02:49:13.768Z,6.97
2023-12-07T02:49:46.214Z,6.80
2023-12-07T02:50:18.629Z,7.60
2023-12-07T02:50:51.132Z,7.70
2023-12-07T02:51:26.158Z,8.10
2023-12-07T02:51:58.590Z,7.83
2023-12-07T02:52:31.009Z,7.83
2023-12-07T02:53:06.060Z,7.07
2023-12-07T02:53:38.476Z,7.50
2023-12-07T02:54:10.884Z,7.00
2023-12-07T02:54:43.577Z,7.60
2023-12-07T02:55:18.679Z,7.60
2023-12-07T02:55:51.133Z,7.30
2023-12-07T02:56:23.556Z,7.03
2023-12-07T02:56:55.950Z,7.80
2023-12-07T02:57:34.829Z,6.87
2023-12-07T02:58:08.135Z,7.30
2023-12-07T02:58:40.697Z,7.63
2023-12-07T02:59:13.197Z,7.37
2023-12-07T02:59:48.141Z,7.17
2023-12-07T03:00:22.500Z,7.20
2023-12-07T03:00:54.857Z,7.47
2023-12-07T03:01:30.130Z,7.50
2023-12-07T03:02:02.607Z,8.13
2023-12-07T03:02:35.513Z,6.70
2023-12-07T03:03:07.919Z,6.47
2023-12-07T03:03:43.544Z,7.37
2023-12-07T03:04:15.988Z,7.23
2023-12-07T03:04:48.704Z,6.93
2023-12-07T03:05:21.762Z,7.40
2023-12-07T03:05:56.804Z,6.83
2023-12-07T03:06:30.155Z,7.40
2023-12-07T03:07:02.532Z,7.63
2023-12-07T03:07:37.748Z,6.80
2023-12-07T03:08:10.143Z,7.13
2023-12-07T03:08:42.480Z,6.87
2023-12-07T03:09:14.896Z,6.90
2023-12-07T03:09:49.878Z,7.17
2023-12-07T03:10:22.268Z,7.27
2023-12-07T03:10:54.638Z,7.30
2023-12-07T03:11:26.975Z,6.83
2023-12-07T03:11:59.318Z,7.20
2023-12-07T03:12:36.857Z,6.53
2023-12-07T03:13:09.282Z,7.20
2023-12-07T03:13:41.754Z,7.70
2023-12-07T03:14:14.150Z,7.03
2023-12-07T03:14:49.147Z,6.23
2023-12-07T03:15:22.537Z,6.50
2023-12-07T03:15:54.950Z,7.33
2023-12-07T03:16:29.922Z,6.90
2023-12-07T03:17:02.336Z,6.97
2023-12-07T03:17:35.280Z,6.47
2023-12-07T03:18:08.606Z,7.10
2023-12-07T03:18:43.712Z,7.37
2023-12-07T03:19:16.255Z,7.30
2023-12-07T03:19:48.736Z,6.67
2023-12-07T03:20:21.587Z,7.57
2023-12-07T03:20:56.548Z,7.57
2023-12-07T03:21:28.964Z,6.77
2023-12-07T03:22:01.379Z,7.10
2023-12-07T03:22:36.435Z,6.30
2023-12-07T03:23:08.902Z,7.70
2023-12-07T03:23:41.292Z,6.60
2023-12-07T03:24:13.750Z,7.40
2023-12-07T03:24:50.900Z,6.40
2023-12-07T03:25:23.524Z,6.20
2023-12-07T03:25:55.893Z,7.70
2023-12-07T03:26:28.271Z,7.43
2023-12-07T03:27:03.223Z,7.20
2023-12-07T03:27:38.206Z,7.50
2023-12-07T03:28:10.643Z,7.90
2023-12-07T03:28:43.001Z,7.23
2023-12-07T03:29:17.947Z,7.17
2023-12-07T03:29:50.422Z,6.80
2023-12-07T03:30:22.799Z,7.00
2023-12-07T03:30:55.221Z,6.47
2023-12-07T03:31:30.351Z,6.90
2023-12-07T03:32:02.713Z,7.03
2023-12-07T03:32:35.136Z,6.80
2023-12-07T03:33:07.679Z,6.97
2023-12-07T03:33:42.682Z,6.60
2023-12-07T03:34:17.097Z,6.23
2023-12-07T03:34:49.601Z,7.20
2023-12-07T03:35:23.028Z,6.97
2023-12-07T03:35:58.072Z,6.33
2023-12-07T03:36:32.472Z,6.90
2023-12-07T03:37:05.391Z,7.10
2023-12-07T03:37:37.831Z,7.27
2023-12-07T03:38:12.795Z,7.20
2023-12-07T03:38:45.160Z,6.30
2023-12-07T03:39:19.892Z,7.70
2023-12-07T03:39:55.046Z,7.50
2023-12-07T03:40:27.419Z,7.30
2023-12-07T03:40:59.804Z,7.20
2023-12-07T03:41:32.258Z,7.87
2023-12-07T03:42:48.191Z,7.20
2023-12-07T03:43:04.877Z,6.93
2023-12-07T03:43:40.044Z,6.73
2023-12-07T03:44:12.479Z,6.90
2023-12-07T03:44:45.271Z,7.70
2023-12-07T03:45:20.352Z,6.70
2023-12-07T03:45:53.525Z,7.53
2023-12-07T03:46:25.962Z,7.57
2023-12-07T03:47:01.089Z,7.50
2023-12-07T03:47:33.468Z,6.70
2023-12-07T03:48:06.432Z,7.07
2023-12-07T03:48:38.856Z,8.07
2023-12-07T03:49:13.866Z,7.73
2023-12-07T03:49:46.400Z,7.77
2023-12-07T03:50:18.776Z,6.40
2023-12-07T03:50:51.185Z,6.47
2023-12-07T03:51:26.159Z,7.23
2023-12-07T03:51:58.572Z,7.73
2023-12-07T03:52:31.043Z,8.63
2023-12-07T03:53:03.733Z,7.00
2023-12-07T03:53:38.680Z,5.40
2023-12-07T03:54:11.081Z,7.43
2023-12-07T03:54:43.441Z,7.27
2023-12-07T03:55:18.518Z,7.80
2023-12-07T03:55:50.930Z,7.37
2023-12-07T03:56:26.589Z,7.33
2023-12-07T03:56:58.932Z,6.73
2023-12-07T03:57:33.885Z,6.70
2023-12-07T03:58:08.869Z,7.23
2023-12-07T03:58:41.258Z,6.50
2023-12-07T03:59:13.634Z,7.60
2023-12-07T03:59:48.590Z,7.40
2023-12-07T04:00:20.951Z,6.97
2023-12-07T04:00:53.365Z,7.57
2023-12-07T04:01:26.704Z,6.83
2023-12-07T04:02:01.808Z,6.17
2023-12-07T04:02:34.503Z,6.00
2023-12-07T04:03:06.924Z,5.70
2023-12-07T04:03:39.508Z,6.00
2023-12-07T04:04:14.677Z,7.30
2023-12-07T04:04:47.039Z,6.00
2023-12-07T04:05:19.444Z,4.67
2023-12-07T04:05:51.861Z,4.97
2023-12-07T04:06:24.593Z,5.17
2023-12-07T04:06:59.547Z,4.90
2023-12-07T04:07:32.238Z,5.40
2023-12-07T04:08:06.418Z,5.33
2023-12-07T04:08:38.830Z,4.87
2023-12-07T04:09:13.840Z,4.70
2023-12-07T04:09:46.481Z,5.10
2023-12-07T04:10:18.871Z,5.30
2023-12-07T04:10:52.246Z,4.60
2023-12-07T04:11:27.231Z,4.43
2023-12-07T04:11:59.582Z,4.50
2023-12-07T04:12:31.939Z,3.87
2023-12-07T04:13:04.366Z,4.30
2023-12-07T04:13:42.513Z,4.27
2023-12-07T04:14:14.934Z,4.90
2023-12-07T04:14:47.271Z,4.20
2023-12-07T04:15:20.145Z,4.27
2023-12-07T04:15:55.124Z,4.20
2023-12-07T04:16:27.978Z,4.00
2023-12-07T04:17:00.400Z,4.23
2023-12-07T04:17:32.807Z,4.57
2023-12-07T04:18:08.046Z,3.60
2023-12-07T04:18:40.717Z,3.67
2023-12-07T04:19:13.316Z,3.73
2023-12-07T04:19:45.835Z,3.00
2023-12-07T04:20:21.044Z,3.53
2023-12-07T04:20:53.403Z,3.50
2023-12-07T04:21:25.783Z,3.70
2023-12-07T04:21:58.162Z,3.80
2023-12-07T04:22:30.635Z,3.60
2023-12-07T04:23:05.637Z,3.40
2023-12-07T04:23:38.022Z,3.10
2023-12-07T04:24:10.517Z,3.23
2023-12-07T04:24:42.853Z,3.57
2023-12-07T04:25:17.927Z,3.10
2023-12-07T04:25:50.511Z,3.00
2023-12-07T04:26:22.882Z,3.43
2023-12-07T04:26:55.967Z,3.87
2023-12-07T04:27:30.939Z,3.80
2023-12-07T04:28:03.524Z,3.97
2023-12-07T04:28:38.679Z,3.60
2023-12-07T04:29:13.789Z,3.40
2023-12-07T04:29:46.156Z,3.60
2023-12-07T04:30:18.612Z,4.03
2023-12-07T04:30:54.115Z,4.13
2023-12-07T04:31:26.605Z,4.30
2023-12-07T04:31:59.011Z,4.43
2023-12-07T04:32:31.389Z,4.30
2023-12-07T04:33:06.646Z,3.80
2023-12-07T04:33:39.173Z,3.67
2023-12-07T04:34:11.616Z,3.90
2023-12-07T04:34:44.246Z,3.47
2023-12-07T04:35:19.252Z,4.07
2023-12-07T04:35:51.786Z,3.90
2023-12-07T04:36:26.811Z,3.73
2023-12-07T04:36:59.256Z,4.03
2023-12-07T04:37:31.719Z,4.10
2023-12-07T04:38:04.246Z,4.73
2023-12-07T04:38:39.240Z,4.40
2023-12-07T04:39:11.618Z,3.80
2023-12-07T04:39:43.963Z,4.20
2023-12-07T04:40:16.961Z,4.30
2023-12-07T04:40:52.221Z,4.60
2023-12-07T04:41:24.583Z,4.83
2023-12-07T04:41:56.985Z,4.87
2023-12-07T04:42:29.323Z,4.70
2023-12-07T04:43:04.372Z,4.83
2023-12-07T04:43:39.419Z,3.97
2023-12-07T04:44:11.805Z,4.60
2023-12-07T04:44:44.202Z,4.17
2023-12-07T04:45:19.429Z,3.93
2023-12-07T04:45:51.808Z,4.23
2023-12-07T04:46:24.441Z,4.10
2023-12-07T04:46:56.941Z,4.83
2023-12-07T04:47:31.938Z,4.20
2023-12-07T04:48:05.903Z,5.10
2023-12-07T04:48:38.483Z,4.17
2023-12-07T04:49:13.654Z,4.50
2023-12-07T04:49:46.159Z,4.50
2023-12-07T04:50:18.957Z,4.50
2023-12-07T04:50:52.208Z,5.03
2023-12-07T04:51:27.167Z,4.73
2023-12-07T04:51:59.685Z,5.17
2023-12-07T04:52:33.162Z,4.60
2023-12-07T04:53:06.474Z,4.47
2023-12-07T04:53:41.502Z,4.40
2023-12-07T04:54:19.453Z,4.70
2023-12-07T04:54:52.618Z,5.03
2023-12-07T04:55:25.074Z,5.43
2023-12-07T04:56:00.186Z,5.90
2023-12-07T04:56:32.597Z,6.00
2023-12-07T04:57:05.402Z,4.43
2023-12-07T04:57:37.967Z,4.80
2023-12-07T04:58:13.062Z,5.10
2023-12-07T04:58:48.139Z,4.77
2023-12-07T04:59:20.498Z,4.87
2023-12-07T04:59:52.851Z,4.40
2023-12-07T05:00:28.636Z,4.30
2023-12-07T05:01:01.121Z,4.70
2023-12-07T05:01:33.660Z,4.20
2023-12-07T05:02:06.175Z,4.13
2023-12-07T05:02:39.036Z,4.47
2023-12-07T05:03:14.090Z,4.77
2023-12-07T05:03:46.595Z,4.40
2023-12-07T05:04:18.991Z,4.40
2023-12-07T05:04:51.375Z,4.67
2023-12-07T05:05:25.978Z,4.37
2023-12-07T05:06:01.199Z,5.00
2023-12-07T05:06:33.662Z,4.37
2023-12-07T05:07:06.164Z,4.90
2023-12-07T05:07:38.859Z,4.53
2023-12-07T05:08:13.922Z,4.83
2023-12-07T05:08:46.280Z,5.43
2023-12-07T05:09:18.919Z,5.03
2023-12-07T05:09:52.224Z,6.03
2023-12-07T05:10:27.255Z,5.80
2023-12-07T05:10:59.675Z,5.17
2023-12-07T05:11:32.041Z,5.03
2023-12-07T05:12:05.036Z,5.03
2023-12-07T05:12:39.993Z,5.80
2023-12-07T05:13:12.454Z,5.90
2023-12-07T05:13:47.449Z,6.10
2023-12-07T05:14:19.815Z,5.63
2023-12-07T05:14:54.769Z,5.70
2023-12-07T05:15:27.157Z,5.93
2023-12-07T05:15:59.801Z,5.57
2023-12-07T05:16:32.284Z,5.27
2023-12-07T05:17:07.949Z,5.47
2023-12-07T05:17:40.392Z,5.50
2023-12-07T05:18:12.853Z,5.80
2023-12-07T05:18:45.506Z,5.20
2023-12-07T05:19:20.569Z,5.73
2023-12-07T05:19:53.025Z,5.47
2023-12-07T05:20:27.071Z,5.83
2023-12-07T05:21:02.011Z,5.50
2023-12-07T05:21:34.367Z,6.43
2023-12-07T05:22:06.829Z,6.67
2023-12-07T05:22:39.246Z,6.73
2023-12-07T05:23:14.322Z,6.93
2023-12-07T05:23:46.666Z,5.70
2023-12-07T05:24:19.676Z,5.00
2023-12-07T05:24:52.254Z,5.33
2023-12-07T05:25:27.230Z,4.30
2023-12-07T05:25:59.589Z,5.07
2023-12-07T05:26:34.277Z,4.20
2023-12-07T05:27:06.651Z,4.20
2023-12-07T05:27:41.614Z,3.93
2023-12-07T05:28:14.415Z,4.50
2023-12-07T05:28:49.671Z,4.73
2023-12-07T05:29:22.187Z,4.77
2023-12-07T05:29:57.175Z,4.87
2023-12-07T05:30:29.513Z,5.10
2023-12-07T05:31:02.085Z,5.07
2023-12-07T05:31:34.535Z,5.00
2023-12-07T05:32:10.549Z,4.63
2023-12-07T05:32:42.941Z,5.00
2023-12-07T05:33:16.671Z,4.53
2023-12-07T05:33:49.108Z,5.37
2023-12-07T05:34:24.187Z,4.87
2023-12-07T05:34:56.607Z,5.00
2023-12-07T05:35:29.013Z,4.80
2023-12-07T05:36:01.892Z,5.03
2023-12-07T05:36:36.927Z,4.83
2023-12-07T05:37:09.524Z,5.00
2023-12-07T05:37:41.937Z,5.10
2023-12-07T05:38:17.229Z,5.60
2023-12-07T05:38:49.585Z,5.10
2023-12-07T05:39:22.824Z,4.90
2023-12-07T05:39:55.171Z,4.60
2023-12-07T05:40:30.344Z,5.40
2023-12-07T05:41:02.991Z,4.80
2023-12-07T05:41:35.376Z,5.33
2023-12-07T05:42:07.835Z,5.60
2023-12-07T05:42:42.787Z,5.13
2023-12-07T05:43:16.716Z,5.47
2023-12-07T05:43:52.598Z,5.20
2023-12-07T05:44:25.009Z,5.10
2023-12-07T05:45:00.665Z,5.60
2023-12-07T05:45:33.041Z,5.27
2023-12-07T05:46:05.689Z,5.60
2023-12-07T05:46:38.247Z,4.97
2023-12-07T05:47:13.371Z,4.73
2023-12-07T05:47:45.884Z,5.20
2023-12-07T05:48:18.423Z,5.20
2023-12-07T05:48:52.299Z,5.17
2023-12-07T05:49:29.032Z,5.33
2023-12-07T05:50:01.473Z,5.20
2023-12-07T05:50:33.918Z,5.03
2023-12-07T05:51:06.732Z,5.60
2023-12-07T05:51:41.691Z,6.00
2023-12-07T05:52:14.124Z,5.53
2023-12-07T05:52:46.540Z,6.07
2023-12-07T05:53:21.514Z,5.67
2023-12-07T05:53:54.097Z,6.20
2023-12-07T05:54:26.584Z,5.30
2023-12-07T05:54:59.036Z,5.87
2023-12-07T05:55:34.460Z,5.93
2023-12-07T05:56:07.645Z,5.83
2023-12-07T05:56:40.136Z,5.80
2023-12-07T05:57:12.526Z,5.83
2023-12-07T05:57:49.166Z,6.00
2023-12-07T05:58:21.599Z,6.40
2023-12-07T05:58:56.564Z,5.63
2023-12-07T05:59:31.507Z,5.57
2023-12-07T06:00:04.791Z,5.40
2023-12-07T06:00:44.997Z,6.33
2023-12-07T06:01:19.202Z,5.87
2023-12-07T06:01:55.999Z,6.07
2023-12-07T06:02:28.678Z,5.47
2023-12-07T06:03:01.126Z,6.50
2023-12-07T06:03:33.968Z,5.53
2023-12-07T06:04:14.010Z,5.40
2023-12-07T06:04:46.682Z,4.83
2023-12-07T06:05:19.593Z,5.07
2023-12-07T06:05:52.061Z,5.97
2023-12-07T06:06:27.065Z,5.70
2023-12-07T06:06:59.482Z,6.03
2023-12-07T06:07:32.159Z,5.50
2023-12-07T06:08:05.600Z,5.57
2023-12-07T06:08:41.014Z,5.83
2023-12-07T06:09:13.353Z,5.83
2023-12-07T06:09:45.899Z,5.70
2023-12-07T06:10:20.974Z,5.87
2023-12-07T06:10:53.374Z,6.00
2023-12-07T06:11:25.740Z,6.70
2023-12-07T06:11:58.161Z,6.00
2023-12-07T06:12:33.521Z,5.87
2023-12-07T06:13:06.491Z,6.57
2023-12-07T06:13:39.541Z,7.50
2023-12-07T06:14:14.597Z,7.33
2023-12-07T06:14:49.557Z,7.53
2023-12-07T06:15:21.940Z,6.83
2023-12-07T06:15:54.301Z,7.17
2023-12-07T06:16:27.807Z,7.50
2023-12-07T06:17:03.240Z,6.30
2023-12-07T06:17:35.730Z,6.90
2023-12-07T06:18:08.359Z,6.43
2023-12-07T06:18:41.004Z,7.07
2023-12-07T06:19:16.140Z,6.23
2023-12-07T06:19:48.733Z,6.20
2023-12-07T06:20:21.465Z,5.60
2023-12-07T06:20:53.885Z,5.57
2023-12-07T06:21:31.145Z,6.40
2023-12-07T06:22:05.015Z,6.00
2023-12-07T06:22:37.445Z,6.50
2023-12-07T06:23:14.017Z,5.87
2023-12-07T06:23:49.122Z,6.20
2023-12-07T06:24:25.891Z,5.93
2023-12-07T06:24:58.305Z,6.60
2023-12-07T06:25:30.733Z,5.70
2023-12-07T06:26:03.637Z,6.00
2023-12-07T06:26:38.609Z,5.73
2023-12-07T06:27:11.469Z,6.83
2023-12-07T06:27:43.809Z,5.87
2023-12-07T06:28:18.998Z,6.60
2023-12-07T06:28:51.453Z,6.37
2023-12-07T06:29:28.749Z,6.13
2023-12-07T06:30:02.304Z,6.60
2023-12-07T06:30:37.323Z,6.50
2023-12-07T06:31:10.205Z,5.77
2023-12-07T06:31:44.901Z,6.47
2023-12-07T06:32:20.056Z,6.63
2023-12-07T06:32:52.460Z,7.10
2023-12-07T06:33:24.898Z,6.80
2023-12-07T06:33:57.316Z,6.70
2023-12-07T06:34:32.484Z,6.63
2023-12-07T06:35:05.940Z,6.50
2023-12-07T06:35:38.357Z,6.43
2023-12-07T06:36:11.067Z,6.93
2023-12-07T06:36:46.061Z,6.67
2023-12-07T06:37:19.191Z,7.23
2023-12-07T06:37:51.596Z,6.50
2023-12-07T06:38:23.937Z,6.43
2023-12-07T06:38:59.451Z,5.93
2023-12-07T06:39:31.816Z,6.87
2023-12-07T06:40:05.975Z,7.13
2023-12-07T06:40:38.381Z,6.70
2023-12-07T06:41:13.375Z,6.87
2023-12-07T06:41:45.737Z,7.17
2023-12-07T06:42:18.112Z,6.67
2023-12-07T06:42:53.104Z,6.23
2023-12-07T06:43:25.632Z,6.33
2023-12-07T06:43:59.556Z,6.07
2023-12-07T06:44:34.645Z,6.80
2023-12-07T06:45:12.372Z,6.63
2023-12-07T06:45:44.723Z,6.13
2023-12-07T06:46:17.883Z,6.63
2023-12-07T06:46:53.592Z,6.90
2023-12-07T06:47:26.201Z,6.53
2023-12-07T06:47:58.821Z,6.03
2023-12-07T06:48:31.237Z,6.10
2023-12-07T06:49:06.376Z,5.80
2023-12-07T06:49:47.349Z,6.40
2023-12-07T06:50:24.694Z,5.80
2023-12-07T06:50:59.653Z,6.63
2023-12-07T06:51:32.044Z,5.67
2023-12-07T06:52:05.054Z,6.60
2023-12-07T06:52:37.538Z,5.30
2023-12-07T06:53:12.583Z,6.50
2023-12-07T06:53:44.954Z,5.60
2023-12-07T06:54:17.408Z,6.07
2023-12-07T06:54:49.824Z,5.70
2023-12-07T06:55:25.485Z,6.30
2023-12-07T06:55:57.910Z,5.30
2023-12-07T06:56:30.281Z,5.57
2023-12-07T06:57:05.257Z,5.67
2023-12-07T06:57:37.616Z,5.93
2023-12-07T06:58:11.361Z,6.23
2023-12-07T06:58:43.927Z,5.30
2023-12-07T06:59:19.016Z,5.90
2023-12-07T06:59:54.027Z,6.20
2023-12-07T07:00:26.397Z,5.90
2023-12-07T07:00:59.033Z,5.40
2023-12-07T07:01:34.653Z,6.03
2023-12-07T07:02:07.587Z,5.50
2023-12-07T07:02:40.161Z,5.57
2023-12-07T07:03:12.540Z,5.87
2023-12-07T07:03:47.603Z,5.40
2023-12-07T07:04:20.364Z,5.50
2023-12-07T07:04:53.270Z,5.33
2023-12-07T07:05:25.857Z,5.40
2023-12-07T07:06:01.161Z,5.70
2023-12-07T07:06:33.535Z,5.40
2023-12-07T07:07:06.130Z,6.40
2023-12-07T07:07:38.876Z,28.10
2023-12-07T07:08:13.854Z,19.03
2023-12-07T07:08:47.257Z,8.70
2023-12-07T07:09:19.651Z,6.30
2023-12-07T07:09:52.020Z,6.97
2023-12-07T07:10:26.997Z,11.20
2023-12-07T07:10:59.356Z,6.90
2023-12-07T07:11:31.714Z,9.83
2023-12-07T07:12:07.345Z,11.73
2023-12-07T07:12:39.749Z,9.00
2023-12-07T07:13:12.205Z,11.60
2023-12-07T07:13:44.751Z,10.88
2023-12-07T07:14:19.848Z,9.73
2023-12-07T07:14:54.818Z,9.27
2023-12-07T07:15:27.246Z,7.20
2023-12-07T07:15:59.600Z,6.80
2023-12-07T07:16:34.642Z,6.83
2023-12-07T07:17:07.030Z,5.97
2023-12-07T07:17:39.486Z,6.50
2023-12-07T07:18:12.045Z,6.10
2023-12-07T07:18:47.840Z,5.80
2023-12-07T07:19:20.321Z,6.00
2023-12-07T07:19:52.912Z,6.70
2023-12-07T07:20:25.390Z,6.37
2023-12-07T07:21:00.410Z,5.83
2023-12-07T07:21:33.014Z,6.07
2023-12-07T07:22:06.248Z,6.13
2023-12-07T07:22:38.750Z,5.95
2023-12-07T07:23:14.030Z,5.73
2023-12-07T07:23:46.378Z,6.10
2023-12-07T07:24:18.722Z,5.87
2023-12-07T07:24:51.100Z,5.60
2023-12-07T07:25:26.154Z,5.77
2023-12-07T07:25:58.531Z,5.80
2023-12-07T07:26:30.876Z,5.80
2023-12-07T07:27:06.389Z,5.63
2023-12-07T07:27:39.149Z,7.20
2023-12-07T07:28:11.684Z,6.30
2023-12-07T07:28:46.797Z,7.07